sensor_id;sensor_type;location;lat;lon;timestamp;P1;durP1;ratioP1;P2;durP2;ratioP2
4521;SDS011;2273;48.464;11.926;2023-02-08T00:01:07;28.40;;;16.20;;
4521;SDS011;2273;48.464;11.926;2023-02-08T00:03:33;29.67;;;15.85;;
4521;SDS011;2273;48.464;11.926;2023-02-08T00:05:58;26.83;;;15.53;;
4521;SDS011;2273;48.464;11.926;2023-02-08T00:08:24;29.17;;;15.20;;
4521;SDS011;2273;48.464;11.926;2023-02-08T00:10:49;32.00;;;17.53;;
4521;SDS011;2273;48.464;11.926;2023-02-08T00:13:15;30.60;;;15.73;;
4521;SDS011;2273;48.464;11.926;2023-02-08T00:15:41;28.43;;;15.10;;
4521;SDS011;2273;48.464;11.926;2023-02-08T00:18:07;31.67;;;15.73;;
4521;SDS011;2273;48.464;11.926;2023-02-08T00:20:32;28.50;;;16.30;;
4521;SDS011;2273;48.464;11.926;2023-02-08T00:22:58;31.43;;;16.90;;
4521;SDS011;2273;48.464;11.926;2023-02-08T00:25:23;33.37;;;16.30;;
4521;SDS011;2273;48.464;11.926;2023-02-08T00:27:49;28.20;;;16.93;;
4521;SDS011;2273;48.464;11.926;2023-02-08T00:30:15;30.40;;;15.52;;
4521;SDS011;2273;48.464;11.926;2023-02-08T00:32:40;31.40;;;16.73;;
4521;SDS011;2273;48.464;11.926;2023-02-08T00:35:06;32.63;;;17.13;;
4521;SDS011;2273;48.464;11.926;2023-02-08T00:37:31;31.23;;;17.03;;
4521;SDS011;2273;48.464;11.926;2023-02-08T00:39:57;39.13;;;17.33;;
4521;SDS011;2273;48.464;11.926;2023-02-08T00:42:25;32.03;;;16.50;;
4521;SDS011;2273;48.464;11.926;2023-02-08T00:44:51;42.78;;;18.45;;
4521;SDS011;2273;48.464;11.926;2023-02-08T00:47:17;32.20;;;16.60;;
4521;SDS011;2273;48.464;11.926;2023-02-08T00:49:42;33.87;;;17.40;;
4521;SDS011;2273;48.464;11.926;2023-02-08T00:52:07;36.07;;;19.03;;
4521;SDS011;2273;48.464;11.926;2023-02-08T00:54:33;35.57;;;17.80;;
4521;SDS011;2273;48.464;11.926;2023-02-08T00:56:58;36.27;;;17.30;;
4521;SDS011;2273;48.464;11.926;2023-02-08T00:59:24;33.30;;;17.23;;
4521;SDS011;2273;48.464;11.926;2023-02-08T01:01:49;33.17;;;17.50;;
4521;SDS011;2273;48.464;11.926;2023-02-08T01:04:14;31.10;;;16.73;;
4521;SDS011;2273;48.464;11.926;2023-02-08T01:06:40;35.00;;;18.50;;
4521;SDS011;2273;48.464;11.926;2023-02-08T01:09:06;35.03;;;18.13;;
4521;SDS011;2273;48.464;11.926;2023-02-08T01:11:31;37.83;;;18.77;;
4521;SDS011;2273;48.464;11.926;2023-02-08T01:13:58;31.20;;;16.73;;
4521;SDS011;2273;48.464;11.926;2023-02-08T01:16:25;38.53;;;19.07;;
4521;SDS011;2273;48.464;11.926;2023-02-08T01:18:52;40.60;;;19.38;;
4521;SDS011;2273;48.464;11.926;2023-02-08T01:21:21;37.95;;;18.98;;
4521;SDS011;2273;48.464;11.926;2023-02-08T01:23:47;33.80;;;17.67;;
4521;SDS011;2273;48.464;11.926;2023-02-08T01:26:13;45.43;;;19.63;;
4521;SDS011;2273;48.464;11.926;2023-02-08T01:28:40;30.67;;;17.75;;
4521;SDS011;2273;48.464;11.926;2023-02-08T01:31:11;51.08;;;18.67;;
4521;SDS011;2273;48.464;11.926;2023-02-08T01:33:38;39.45;;;18.95;;
4521;SDS011;2273;48.464;11.926;2023-02-08T01:36:04;40.30;;;19.77;;
4521;SDS011;2273;48.464;11.926;2023-02-08T01:38:31;34.60;;;18.13;;
4521;SDS011;2273;48.464;11.926;2023-02-08T01:40:57;34.35;;;18.20;;
4521;SDS011;2273;48.464;11.926;2023-02-08T01:43:24;37.70;;;19.87;;
4521;SDS011;2273;48.464;11.926;2023-02-08T01:45:51;34.40;;;17.38;;
4521;SDS011;2273;48.464;11.926;2023-02-08T01:48:35;40.67;;;18.30;;
4521;SDS011;2273;48.464;11.926;2023-02-08T01:53:30;38.88;;;18.85;;
4521;SDS011;2273;48.464;11.926;2023-02-08T01:55:58;40.00;;;19.42;;
4521;SDS011;2273;48.464;11.926;2023-02-08T01:58:25;36.38;;;19.20;;
4521;SDS011;2273;48.464;11.926;2023-02-08T02:00:52;39.28;;;19.10;;
4521;SDS011;2273;48.464;11.926;2023-02-08T02:03:18;39.37;;;18.77;;
4521;SDS011;2273;48.464;11.926;2023-02-08T02:05:46;44.42;;;20.70;;
4521;SDS011;2273;48.464;11.926;2023-02-08T02:08:14;38.97;;;19.95;;
4521;SDS011;2273;48.464;11.926;2023-02-08T02:10:40;40.10;;;19.93;;
4521;SDS011;2273;48.464;11.926;2023-02-08T02:13:11;39.80;;;19.38;;
4521;SDS011;2273;48.464;11.926;2023-02-08T02:15:42;43.65;;;19.77;;
4521;SDS011;2273;48.464;11.926;2023-02-08T02:18:08;40.67;;;20.80;;
4521;SDS011;2273;48.464;11.926;2023-02-08T02:40:09;39.25;;;19.02;;
4521;SDS011;2273;48.464;11.926;2023-02-08T02:46:34;37.28;;;18.65;;
4521;SDS011;2273;48.464;11.926;2023-02-08T02:51:47;36.42;;;18.45;;
4521;SDS011;2273;48.464;11.926;2023-02-08T02:54:21;36.15;;;19.67;;
4521;SDS011;2273;48.464;11.926;2023-02-08T02:56:48;45.63;;;20.25;;
4521;SDS011;2273;48.464;11.926;2023-02-08T02:59:15;40.10;;;18.70;;
4521;SDS011;2273;48.464;11.926;2023-02-08T03:01:42;41.47;;;21.23;;
4521;SDS011;2273;48.464;11.926;2023-02-08T03:04:17;43.33;;;19.67;;
4521;SDS011;2273;48.464;11.926;2023-02-08T03:06:54;40.55;;;20.75;;
4521;SDS011;2273;48.464;11.926;2023-02-08T03:09:26;45.47;;;21.08;;
4521;SDS011;2273;48.464;11.926;2023-02-08T03:11:56;44.83;;;20.80;;
4521;SDS011;2273;48.464;11.926;2023-02-08T03:14:57;40.75;;;20.15;;
4521;SDS011;2273;48.464;11.926;2023-02-08T03:17:45;37.03;;;20.13;;
4521;SDS011;2273;48.464;11.926;2023-02-08T03:20:16;41.22;;;20.00;;
4521;SDS011;2273;48.464;11.926;2023-02-08T03:22:51;39.42;;;19.85;;
4521;SDS011;2273;48.464;11.926;2023-02-08T03:25:26;39.15;;;19.15;;
4521;SDS011;2273;48.464;11.926;2023-02-08T03:30:52;35.78;;;18.65;;
4521;SDS011;2273;48.464;11.926;2023-02-08T03:33:33;41.70;;;20.90;;
4521;SDS011;2273;48.464;11.926;2023-02-08T03:36:05;49.25;;;20.75;;
4521;SDS011;2273;48.464;11.926;2023-02-08T03:38:37;41.15;;;20.55;;
4521;SDS011;2273;48.464;11.926;2023-02-08T03:41:05;40.35;;;20.33;;
4521;SDS011;2273;48.464;11.926;2023-02-08T03:43:50;43.17;;;18.95;;
4521;SDS011;2273;48.464;11.926;2023-02-08T03:46:21;40.67;;;18.95;;
4521;SDS011;2273;48.464;11.926;2023-02-08T03:48:53;38.67;;;19.27;;
4521;SDS011;2273;48.464;11.926;2023-02-08T03:51:23;37.17;;;18.10;;
4521;SDS011;2273;48.464;11.926;2023-02-08T03:53:51;42.00;;;18.63;;
4521;SDS011;2273;48.464;11.926;2023-02-08T03:57:03;45.03;;;19.98;;
4521;SDS011;2273;48.464;11.926;2023-02-08T03:59:20;34.28;;;17.42;;
4521;SDS011;2273;48.464;11.926;2023-02-08T04:01:52;39.17;;;20.33;;
4521;SDS011;2273;48.464;11.926;2023-02-08T04:04:22;38.15;;;18.88;;
4521;SDS011;2273;48.464;11.926;2023-02-08T04:06:48;43.93;;;20.07;;
4521;SDS011;2273;48.464;11.926;2023-02-08T04:09:13;36.03;;;19.57;;
4521;SDS011;2273;48.464;11.926;2023-02-08T04:11:39;40.27;;;19.87;;
4521;SDS011;2273;48.464;11.926;2023-02-08T04:14:04;37.50;;;18.67;;
4521;SDS011;2273;48.464;11.926;2023-02-08T04:16:29;33.53;;;17.60;;
4521;SDS011;2273;48.464;11.926;2023-02-08T04:18:55;39.97;;;19.60;;
4521;SDS011;2273;48.464;11.926;2023-02-08T04:21:20;35.47;;;18.67;;
4521;SDS011;2273;48.464;11.926;2023-02-08T04:23:45;40.93;;;19.57;;
4521;SDS011;2273;48.464;11.926;2023-02-08T04:26:11;38.83;;;19.77;;
4521;SDS011;2273;48.464;11.926;2023-02-08T04:28:36;43.50;;;20.07;;
4521;SDS011;2273;48.464;11.926;2023-02-08T04:31:02;36.23;;;17.87;;
4521;SDS011;2273;48.464;11.926;2023-02-08T04:33:27;35.30;;;18.10;;
4521;SDS011;2273;48.464;11.926;2023-02-08T04:35:53;36.37;;;18.83;;
4521;SDS011;2273;48.464;11.926;2023-02-08T04:38:18;38.30;;;19.10;;
4521;SDS011;2273;48.464;11.926;2023-02-08T04:40:43;34.93;;;17.73;;
4521;SDS011;2273;48.464;11.926;2023-02-08T04:43:09;32.40;;;18.03;;
4521;SDS011;2273;48.464;11.926;2023-02-08T04:45:34;36.83;;;18.60;;
4521;SDS011;2273;48.464;11.926;2023-02-08T04:48:00;49.60;;;20.70;;
4521;SDS011;2273;48.464;11.926;2023-02-08T04:50:25;35.80;;;19.37;;
4521;SDS011;2273;48.464;11.926;2023-02-08T04:52:51;36.03;;;18.63;;
4521;SDS011;2273;48.464;11.926;2023-02-08T04:55:16;42.70;;;20.43;;
4521;SDS011;2273;48.464;11.926;2023-02-08T04:57:42;38.50;;;20.00;;
4521;SDS011;2273;48.464;11.926;2023-02-08T05:00:07;38.67;;;19.00;;
4521;SDS011;2273;48.464;11.926;2023-02-08T05:02:33;41.00;;;19.70;;
4521;SDS011;2273;48.464;11.926;2023-02-08T05:04:58;35.93;;;18.53;;
4521;SDS011;2273;48.464;11.926;2023-02-08T05:07:24;39.07;;;19.83;;
4521;SDS011;2273;48.464;11.926;2023-02-08T05:09:49;36.10;;;19.10;;
4521;SDS011;2273;48.464;11.926;2023-02-08T05:12:14;34.87;;;18.63;;
4521;SDS011;2273;48.464;11.926;2023-02-08T05:14:40;37.10;;;17.93;;
4521;SDS011;2273;48.464;11.926;2023-02-08T05:17:05;35.40;;;18.23;;
4521;SDS011;2273;48.464;11.926;2023-02-08T05:19:31;39.40;;;19.67;;
4521;SDS011;2273;48.464;11.926;2023-02-08T05:21:56;43.03;;;19.57;;
4521;SDS011;2273;48.464;11.926;2023-02-08T05:24:22;36.53;;;18.40;;
4521;SDS011;2273;48.464;11.926;2023-02-08T05:26:47;37.67;;;19.13;;
4521;SDS011;2273;48.464;11.926;2023-02-08T05:29:12;36.17;;;19.27;;
4521;SDS011;2273;48.464;11.926;2023-02-08T05:31:39;37.22;;;18.80;;
4521;SDS011;2273;48.464;11.926;2023-02-08T05:34:04;39.80;;;19.50;;
4521;SDS011;2273;48.464;11.926;2023-02-08T05:36:30;41.70;;;19.57;;
4521;SDS011;2273;48.464;11.926;2023-02-08T05:38:55;39.70;;;18.40;;
4521;SDS011;2273;48.464;11.926;2023-02-08T05:41:21;34.57;;;19.40;;
4521;SDS011;2273;48.464;11.926;2023-02-08T05:43:46;42.13;;;19.70;;
4521;SDS011;2273;48.464;11.926;2023-02-08T05:46:11;36.17;;;18.30;;
4521;SDS011;2273;48.464;11.926;2023-02-08T05:48:37;37.70;;;19.83;;
4521;SDS011;2273;48.464;11.926;2023-02-08T05:51:02;40.77;;;18.40;;
4521;SDS011;2273;48.464;11.926;2023-02-08T05:53:28;37.83;;;19.50;;
4521;SDS011;2273;48.464;11.926;2023-02-08T05:55:55;38.33;;;19.23;;
4521;SDS011;2273;48.464;11.926;2023-02-08T05:58:21;43.35;;;21.02;;
4521;SDS011;2273;48.464;11.926;2023-02-08T06:00:46;38.97;;;19.37;;
4521;SDS011;2273;48.464;11.926;2023-02-08T06:03:12;36.00;;;18.47;;
4521;SDS011;2273;48.464;11.926;2023-02-08T06:05:37;33.53;;;18.07;;
4521;SDS011;2273;48.464;11.926;2023-02-08T06:08:03;38.53;;;18.92;;
4521;SDS011;2273;48.464;11.926;2023-02-08T06:10:29;39.30;;;18.57;;
4521;SDS011;2273;48.464;11.926;2023-02-08T06:12:54;47.03;;;17.70;;
4521;SDS011;2273;48.464;11.926;2023-02-08T06:15:20;40.83;;;19.43;;
4521;SDS011;2273;48.464;11.926;2023-02-08T06:17:45;39.20;;;17.43;;
4521;SDS011;2273;48.464;11.926;2023-02-08T06:20:11;37.80;;;19.70;;
4521;SDS011;2273;48.464;11.926;2023-02-08T06:22:36;35.17;;;18.60;;
4521;SDS011;2273;48.464;11.926;2023-02-08T06:25:02;33.30;;;18.13;;
4521;SDS011;2273;48.464;11.926;2023-02-08T06:27:28;33.90;;;18.00;;
4521;SDS011;2273;48.464;11.926;2023-02-08T06:29:53;33.27;;;16.83;;
4521;SDS011;2273;48.464;11.926;2023-02-08T06:32:18;38.47;;;18.50;;
4521;SDS011;2273;48.464;11.926;2023-02-08T06:34:44;47.40;;;18.87;;
4521;SDS011;2273;48.464;11.926;2023-02-08T06:37:09;37.37;;;18.23;;
4521;SDS011;2273;48.464;11.926;2023-02-08T06:39:35;49.70;;;20.30;;
4521;SDS011;2273;48.464;11.926;2023-02-08T06:42:00;39.80;;;20.20;;
4521;SDS011;2273;48.464;11.926;2023-02-08T06:44:26;37.60;;;18.53;;
4521;SDS011;2273;48.464;11.926;2023-02-08T06:46:51;40.87;;;19.63;;
4521;SDS011;2273;48.464;11.926;2023-02-08T06:49:17;43.37;;;20.07;;
4521;SDS011;2273;48.464;11.926;2023-02-08T06:51:42;34.90;;;19.60;;
4521;SDS011;2273;48.464;11.926;2023-02-08T06:54:08;39.27;;;20.17;;
4521;SDS011;2273;48.464;11.926;2023-02-08T06:56:34;38.13;;;18.45;;
4521;SDS011;2273;48.464;11.926;2023-02-08T06:58:59;40.50;;;19.10;;
4521;SDS011;2273;48.464;11.926;2023-02-08T07:01:24;40.93;;;19.00;;
4521;SDS011;2273;48.464;11.926;2023-02-08T07:03:50;43.07;;;19.33;;
4521;SDS011;2273;48.464;11.926;2023-02-08T07:06:16;38.17;;;19.37;;
4521;SDS011;2273;48.464;11.926;2023-02-08T07:08:42;41.42;;;20.20;;
4521;SDS011;2273;48.464;11.926;2023-02-08T07:11:09;39.57;;;19.87;;
4521;SDS011;2273;48.464;11.926;2023-02-08T07:13:35;43.47;;;18.85;;
4521;SDS011;2273;48.464;11.926;2023-02-08T07:16:01;40.87;;;18.90;;
4521;SDS011;2273;48.464;11.926;2023-02-08T07:18:27;41.50;;;19.23;;
4521;SDS011;2273;48.464;11.926;2023-02-08T07:20:53;45.57;;;20.37;;
4521;SDS011;2273;48.464;11.926;2023-02-08T07:23:18;39.20;;;19.63;;
4521;SDS011;2273;48.464;11.926;2023-02-08T07:25:44;38.97;;;19.77;;
4521;SDS011;2273;48.464;11.926;2023-02-08T07:28:10;42.00;;;20.23;;
4521;SDS011;2273;48.464;11.926;2023-02-08T07:30:35;37.07;;;19.30;;
4521;SDS011;2273;48.464;11.926;2023-02-08T07:33:01;38.97;;;18.23;;
4521;SDS011;2273;48.464;11.926;2023-02-08T07:35:26;37.70;;;17.83;;
4521;SDS011;2273;48.464;11.926;2023-02-08T07:37:51;50.47;;;20.60;;
4521;SDS011;2273;48.464;11.926;2023-02-08T07:40:17;41.47;;;19.83;;
4521;SDS011;2273;48.464;11.926;2023-02-08T07:42:43;52.83;;;19.00;;
4521;SDS011;2273;48.464;11.926;2023-02-08T07:45:37;40.78;;;19.60;;
4521;SDS011;2273;48.464;11.926;2023-02-08T07:48:03;34.85;;;18.17;;
4521;SDS011;2273;48.464;11.926;2023-02-08T07:50:29;37.67;;;18.40;;
4521;SDS011;2273;48.464;11.926;2023-02-08T07:52:54;36.87;;;19.50;;
4521;SDS011;2273;48.464;11.926;2023-02-08T07:55:20;35.77;;;18.60;;
4521;SDS011;2273;48.464;11.926;2023-02-08T07:57:46;37.63;;;18.17;;
4521;SDS011;2273;48.464;11.926;2023-02-08T08:00:13;42.90;;;18.98;;
4521;SDS011;2273;48.464;11.926;2023-02-08T08:02:40;39.20;;;19.15;;
4521;SDS011;2273;48.464;11.926;2023-02-08T08:05:06;41.40;;;20.23;;
4521;SDS011;2273;48.464;11.926;2023-02-08T08:07:32;40.08;;;18.60;;
4521;SDS011;2273;48.464;11.926;2023-02-08T08:09:57;37.50;;;19.23;;
4521;SDS011;2273;48.464;11.926;2023-02-08T08:12:23;35.53;;;17.80;;
4521;SDS011;2273;48.464;11.926;2023-02-08T08:14:51;36.28;;;18.90;;
4521;SDS011;2273;48.464;11.926;2023-02-08T08:17:17;37.45;;;17.92;;
4521;SDS011;2273;48.464;11.926;2023-02-08T08:19:43;38.97;;;18.40;;
4521;SDS011;2273;48.464;11.926;2023-02-08T08:22:09;35.67;;;17.40;;
4521;SDS011;2273;48.464;11.926;2023-02-08T08:24:34;37.10;;;18.27;;
4521;SDS011;2273;48.464;11.926;2023-02-08T08:27:00;37.83;;;17.63;;
4521;SDS011;2273;48.464;11.926;2023-02-08T08:29:26;37.30;;;18.15;;
4521;SDS011;2273;48.464;11.926;2023-02-08T08:31:52;38.93;;;18.07;;
4521;SDS011;2273;48.464;11.926;2023-02-08T08:34:17;36.00;;;18.13;;
4521;SDS011;2273;48.464;11.926;2023-02-08T08:36:42;34.30;;;18.23;;
4521;SDS011;2273;48.464;11.926;2023-02-08T08:39:08;34.20;;;17.50;;
4521;SDS011;2273;48.464;11.926;2023-02-08T08:41:34;35.53;;;19.00;;
4521;SDS011;2273;48.464;11.926;2023-02-08T08:44:01;39.15;;;17.55;;
4521;SDS011;2273;48.464;11.926;2023-02-08T08:46:27;49.25;;;18.67;;
4521;SDS011;2273;48.464;11.926;2023-02-08T08:48:52;31.33;;;17.20;;
4521;SDS011;2273;48.464;11.926;2023-02-08T08:51:17;36.03;;;17.70;;
4521;SDS011;2273;48.464;11.926;2023-02-08T08:53:43;36.63;;;18.37;;
4521;SDS011;2273;48.464;11.926;2023-02-08T08:56:08;40.33;;;17.93;;
4521;SDS011;2273;48.464;11.926;2023-02-08T08:58:34;39.13;;;18.30;;
4521;SDS011;2273;48.464;11.926;2023-02-08T09:00:59;37.30;;;17.53;;
4521;SDS011;2273;48.464;11.926;2023-02-08T09:03:25;38.43;;;17.47;;
4521;SDS011;2273;48.464;11.926;2023-02-08T09:05:52;31.38;;;16.75;;
4521;SDS011;2273;48.464;11.926;2023-02-08T09:08:17;36.77;;;17.70;;
4521;SDS011;2273;48.464;11.926;2023-02-08T09:10:43;36.30;;;17.20;;
4521;SDS011;2273;48.464;11.926;2023-02-08T09:13:09;36.60;;;17.67;;
4521;SDS011;2273;48.464;11.926;2023-02-08T09:15:38;36.37;;;17.57;;
4521;SDS011;2273;48.464;11.926;2023-02-08T09:18:04;37.78;;;18.25;;
4521;SDS011;2273;48.464;11.926;2023-02-08T09:20:30;38.70;;;18.47;;
4521;SDS011;2273;48.464;11.926;2023-02-08T09:22:55;35.17;;;18.07;;
4521;SDS011;2273;48.464;11.926;2023-02-08T09:25:21;37.10;;;16.73;;
4521;SDS011;2273;48.464;11.926;2023-02-08T09:27:46;36.60;;;17.37;;
4521;SDS011;2273;48.464;11.926;2023-02-08T09:30:12;37.63;;;17.33;;
4521;SDS011;2273;48.464;11.926;2023-02-08T09:32:38;36.07;;;17.63;;
4521;SDS011;2273;48.464;11.926;2023-02-08T09:35:04;33.63;;;16.20;;
4521;SDS011;2273;48.464;11.926;2023-02-08T09:37:30;34.10;;;16.73;;
4521;SDS011;2273;48.464;11.926;2023-02-08T09:39:56;32.70;;;16.90;;
4521;SDS011;2273;48.464;11.926;2023-02-08T09:42:28;34.95;;;18.02;;
4521;SDS011;2273;48.464;11.926;2023-02-08T09:47:32;35.70;;;17.77;;
4521;SDS011;2273;48.464;11.926;2023-02-08T09:52:49;30.23;;;16.45;;
4521;SDS011;2273;48.464;11.926;2023-02-08T09:55:33;37.90;;;17.70;;
4521;SDS011;2273;48.464;11.926;2023-02-08T09:58:22;32.88;;;17.35;;
4521;SDS011;2273;48.464;11.926;2023-02-08T10:00:50;34.83;;;17.55;;
4521;SDS011;2273;48.464;11.926;2023-02-08T10:03:22;36.58;;;18.77;;
4521;SDS011;2273;48.464;11.926;2023-02-08T10:05:52;36.22;;;18.67;;
4521;SDS011;2273;48.464;11.926;2023-02-08T10:08:18;33.00;;;17.50;;
4521;SDS011;2273;48.464;11.926;2023-02-08T10:10:54;33.73;;;16.60;;
4521;SDS011;2273;48.464;11.926;2023-02-08T10:18:45;31.05;;;15.70;;
4521;SDS011;2273;48.464;11.926;2023-02-08T10:24:07;32.00;;;16.50;;
4521;SDS011;2273;48.464;11.926;2023-02-08T10:26:43;45.78;;;16.55;;
4521;SDS011;2273;48.464;11.926;2023-02-08T10:34:57;44.60;;;16.27;;
4521;SDS011;2273;48.464;11.926;2023-02-08T10:37:35;31.60;;;16.50;;
4521;SDS011;2273;48.464;11.926;2023-02-08T10:40:25;31.30;;;15.75;;
4521;SDS011;2273;48.464;11.926;2023-02-08T10:42:54;29.73;;;15.52;;
4521;SDS011;2273;48.464;11.926;2023-02-08T10:45:33;31.65;;;14.93;;
4521;SDS011;2273;48.464;11.926;2023-02-08T10:48:04;29.75;;;16.20;;
4521;SDS011;2273;48.464;11.926;2023-02-08T10:50:39;29.77;;;15.80;;
4521;SDS011;2273;48.464;11.926;2023-02-08T10:53:05;31.55;;;15.90;;
4521;SDS011;2273;48.464;11.926;2023-02-08T10:55:38;27.35;;;15.50;;
4521;SDS011;2273;48.464;11.926;2023-02-08T10:58:06;36.05;;;15.82;;
4521;SDS011;2273;48.464;11.926;2023-02-08T11:00:37;30.17;;;15.63;;
4521;SDS011;2273;48.464;11.926;2023-02-08T11:03:11;33.60;;;17.80;;
4521;SDS011;2273;48.464;11.926;2023-02-08T11:05:59;31.35;;;15.77;;
4521;SDS011;2273;48.464;11.926;2023-02-08T11:08:25;28.00;;;15.10;;
4521;SDS011;2273;48.464;11.926;2023-02-08T11:13:24;29.42;;;15.15;;
4521;SDS011;2273;48.464;11.926;2023-02-08T11:18:25;27.55;;;15.10;;
4521;SDS011;2273;48.464;11.926;2023-02-08T11:20:57;39.00;;;16.45;;
4521;SDS011;2273;48.464;11.926;2023-02-08T11:23:35;30.20;;;14.98;;
4521;SDS011;2273;48.464;11.926;2023-02-08T11:26:15;28.73;;;15.13;;
4521;SDS011;2273;48.464;11.926;2023-02-08T11:28:42;28.52;;;15.40;;
4521;SDS011;2273;48.464;11.926;2023-02-08T11:31:17;27.48;;;14.68;;
4521;SDS011;2273;48.464;11.926;2023-02-08T11:36:27;29.02;;;14.90;;
4521;SDS011;2273;48.464;11.926;2023-02-08T11:38:53;26.05;;;14.55;;
4521;SDS011;2273;48.464;11.926;2023-02-08T11:41:19;33.80;;;16.40;;
4521;SDS011;2273;48.464;11.926;2023-02-08T11:44:01;28.80;;;15.37;;
4521;SDS011;2273;48.464;11.926;2023-02-08T11:46:29;26.83;;;15.23;;
4521;SDS011;2273;48.464;11.926;2023-02-08T11:48:57;26.02;;;14.88;;
4521;SDS011;2273;48.464;11.926;2023-02-08T11:51:24;25.93;;;14.40;;
4521;SDS011;2273;48.464;11.926;2023-02-08T11:53:52;29.98;;;15.43;;
4521;SDS011;2273;48.464;11.926;2023-02-08T11:56:19;28.60;;;15.63;;
4521;SDS011;2273;48.464;11.926;2023-02-08T11:58:56;26.08;;;14.63;;
4521;SDS011;2273;48.464;11.926;2023-02-08T12:01:30;28.92;;;15.60;;
4521;SDS011;2273;48.464;11.926;2023-02-08T12:03:57;28.90;;;15.13;;
4521;SDS011;2273;48.464;11.926;2023-02-08T12:06:34;30.17;;;15.82;;
4521;SDS011;2273;48.464;11.926;2023-02-08T12:09:28;31.27;;;16.42;;
4521;SDS011;2273;48.464;11.926;2023-02-08T12:12:22;29.98;;;16.08;;
4521;SDS011;2273;48.464;11.926;2023-02-08T12:14:57;27.00;;;15.68;;
4521;SDS011;2273;48.464;11.926;2023-02-08T12:20:31;27.20;;;14.80;;
4521;SDS011;2273;48.464;11.926;2023-02-08T12:25:45;29.25;;;15.65;;
4521;SDS011;2273;48.464;11.926;2023-02-08T12:39:41;30.02;;;15.32;;
4521;SDS011;2273;48.464;11.926;2023-02-08T12:42:43;29.35;;;15.18;;
4521;SDS011;2273;48.464;11.926;2023-02-08T12:53:45;29.10;;;14.52;;
4521;SDS011;2273;48.464;11.926;2023-02-08T12:56:16;27.73;;;14.60;;
4521;SDS011;2273;48.464;11.926;2023-02-08T12:58:44;24.08;;;14.45;;
4521;SDS011;2273;48.464;11.926;2023-02-08T13:01:13;27.48;;;13.95;;
4521;SDS011;2273;48.464;11.926;2023-02-08T13:06:19;24.30;;;14.15;;
4521;SDS011;2273;48.464;11.926;2023-02-08T13:09:00;27.70;;;14.15;;
4521;SDS011;2273;48.464;11.926;2023-02-08T13:11:32;27.60;;;13.27;;
4521;SDS011;2273;48.464;11.926;2023-02-08T13:14:02;24.15;;;13.68;;
4521;SDS011;2273;48.464;11.926;2023-02-08T13:16:34;26.95;;;14.57;;
4521;SDS011;2273;48.464;11.926;2023-02-08T13:19:20;25.33;;;13.90;;
4521;SDS011;2273;48.464;11.926;2023-02-08T13:21:49;24.67;;;13.82;;
4521;SDS011;2273;48.464;11.926;2023-02-08T13:27:01;24.83;;;14.20;;
4521;SDS011;2273;48.464;11.926;2023-02-08T13:29:29;30.42;;;14.20;;
4521;SDS011;2273;48.464;11.926;2023-02-08T13:32:05;26.63;;;14.57;;
4521;SDS011;2273;48.464;11.926;2023-02-08T13:34:43;24.80;;;13.77;;
4521;SDS011;2273;48.464;11.926;2023-02-08T13:37:18;26.40;;;13.70;;
4521;SDS011;2273;48.464;11.926;2023-02-08T13:39:45;28.42;;;14.05;;
4521;SDS011;2273;48.464;11.926;2023-02-08T13:42:20;22.38;;;12.85;;
4521;SDS011;2273;48.464;11.926;2023-02-08T13:44:51;28.25;;;14.52;;
4521;SDS011;2273;48.464;11.926;2023-02-08T13:47:54;32.38;;;13.75;;
4521;SDS011;2273;48.464;11.926;2023-02-08T13:53:09;22.85;;;12.68;;
4521;SDS011;2273;48.464;11.926;2023-02-08T13:55:39;29.20;;;12.95;;
4521;SDS011;2273;48.464;11.926;2023-02-08T14:01:24;23.52;;;11.65;;
4521;SDS011;2273;48.464;11.926;2023-02-08T14:03:29;24.90;;;12.50;;
4521;SDS011;2273;48.464;11.926;2023-02-08T14:08:41;20.85;;;10.88;;
4521;SDS011;2273;48.464;11.926;2023-02-08T14:14:00;18.60;;;10.88;;
4521;SDS011;2273;48.464;11.926;2023-02-08T14:17:07;22.25;;;11.30;;
4521;SDS011;2273;48.464;11.926;2023-02-08T14:19:54;20.13;;;11.55;;
4521;SDS011;2273;48.464;11.926;2023-02-08T14:22:22;23.40;;;11.65;;
4521;SDS011;2273;48.464;11.926;2023-02-08T14:27:29;22.60;;;11.50;;
4521;SDS011;2273;48.464;11.926;2023-02-08T14:32:32;22.73;;;11.05;;
4521;SDS011;2273;48.464;11.926;2023-02-08T14:35:04;19.88;;;11.20;;
4521;SDS011;2273;48.464;11.926;2023-02-08T14:37:32;22.42;;;12.82;;
4521;SDS011;2273;48.464;11.926;2023-02-08T14:45:25;18.65;;;10.82;;
4521;SDS011;2273;48.464;11.926;2023-02-08T14:47:54;20.33;;;11.13;;
4521;SDS011;2273;48.464;11.926;2023-02-08T14:50:27;22.58;;;11.43;;
4521;SDS011;2273;48.464;11.926;2023-02-08T14:53:05;20.80;;;11.82;;
4521;SDS011;2273;48.464;11.926;2023-02-08T14:55:39;25.42;;;11.90;;
4521;SDS011;2273;48.464;11.926;2023-02-08T14:58:11;20.30;;;10.93;;
4521;SDS011;2273;48.464;11.926;2023-02-08T15:00:39;22.58;;;10.88;;
4521;SDS011;2273;48.464;11.926;2023-02-08T15:03:06;25.13;;;12.30;;
4521;SDS011;2273;48.464;11.926;2023-02-08T15:05:40;23.17;;;11.23;;
4521;SDS011;2273;48.464;11.926;2023-02-08T15:08:10;19.65;;;11.48;;
4521;SDS011;2273;48.464;11.926;2023-02-08T15:10:39;24.90;;;12.27;;
4521;SDS011;2273;48.464;11.926;2023-02-08T15:13:05;23.10;;;12.05;;
4521;SDS011;2273;48.464;11.926;2023-02-08T15:15:42;30.05;;;13.88;;
4521;SDS011;2273;48.464;11.926;2023-02-08T15:18:17;17.55;;;11.05;;
4521;SDS011;2273;48.464;11.926;2023-02-08T15:20:44;23.77;;;13.23;;
4521;SDS011;2273;48.464;11.926;2023-02-08T15:23:24;24.98;;;12.70;;
4521;SDS011;2273;48.464;11.926;2023-02-08T15:25:58;22.70;;;11.93;;
4521;SDS011;2273;48.464;11.926;2023-02-08T15:28:24;23.05;;;12.82;;
4521;SDS011;2273;48.464;11.926;2023-02-08T15:30:52;23.63;;;12.60;;
4521;SDS011;2273;48.464;11.926;2023-02-08T15:33:21;21.30;;;11.73;;
4521;SDS011;2273;48.464;11.926;2023-02-08T15:36:00;26.40;;;11.30;;
4521;SDS011;2273;48.464;11.926;2023-02-08T15:38:28;22.63;;;11.90;;
4521;SDS011;2273;48.464;11.926;2023-02-08T15:43:25;20.88;;;11.35;;
4521;SDS011;2273;48.464;11.926;2023-02-08T15:45:54;18.87;;;10.40;;
4521;SDS011;2273;48.464;11.926;2023-02-08T15:48:24;21.60;;;12.02;;
4521;SDS011;2273;48.464;11.926;2023-02-08T15:50:50;20.20;;;10.68;;
4521;SDS011;2273;48.464;11.926;2023-02-08T15:53:16;19.42;;;10.43;;
4521;SDS011;2273;48.464;11.926;2023-02-08T15:55:44;19.77;;;10.80;;
4521;SDS011;2273;48.464;11.926;2023-02-08T16:00:58;24.00;;;10.88;;
4521;SDS011;2273;48.464;11.926;2023-02-08T16:03:25;24.60;;;12.52;;
4521;SDS011;2273;48.464;11.926;2023-02-08T16:05:59;22.77;;;10.63;;
4521;SDS011;2273;48.464;11.926;2023-02-08T16:08:27;20.70;;;11.45;;
4521;SDS011;2273;48.464;11.926;2023-02-08T16:10:58;19.98;;;10.80;;
4521;SDS011;2273;48.464;11.926;2023-02-08T16:13:26;21.92;;;11.23;;
4521;SDS011;2273;48.464;11.926;2023-02-08T16:15:54;19.20;;;11.25;;
4521;SDS011;2273;48.464;11.926;2023-02-08T16:21:05;17.63;;;10.20;;
4521;SDS011;2273;48.464;11.926;2023-02-08T16:23:51;28.88;;;10.85;;
4521;SDS011;2273;48.464;11.926;2023-02-08T16:28:51;27.20;;;10.13;;
4521;SDS011;2273;48.464;11.926;2023-02-08T16:31:21;17.65;;;10.20;;
4521;SDS011;2273;48.464;11.926;2023-02-08T16:33:55;20.50;;;9.65;;
4521;SDS011;2273;48.464;11.926;2023-02-08T16:36:21;20.60;;;10.43;;
4521;SDS011;2273;48.464;11.926;2023-02-08T16:39:13;15.63;;;9.00;;
4521;SDS011;2273;48.464;11.926;2023-02-08T16:44:31;18.80;;;9.25;;
4521;SDS011;2273;48.464;11.926;2023-02-08T16:47:00;20.25;;;9.00;;
4521;SDS011;2273;48.464;11.926;2023-02-08T16:49:27;16.83;;;8.73;;
4521;SDS011;2273;48.464;11.926;2023-02-08T16:51:54;18.03;;;8.90;;